Baltic Frost — 9HA2868 — position and weather

sailwx.info

Track history (hours):
 
Tides and Currents Weather Stations Pressure Air Temp Water Temp Dewpoint Dewpoint Depression Visibility Wind Speed Wind Dir Waves Ship Positions

Baltic Frost

Last reported at 2015-Jan-26 19:20 UTC. Time now 2015-Jan-26 20:29 UTC.
Position N 51°16' E 004°21'.

Length 182 m; draft 10.6 m.

Type: Ship. MMSI: 256495000.

Date/timePositionNaut miles runAvg speedWind from/ knotsBaromVisibWave heightAir tempDewpointWater temp
2015-Jan-26 19:20N 51°16' E 004°21'0 0.0
2015-Jan-26 18:31N 51°16' E 004°21'0 0.0
2015-Jan-26 17:31N 51°16' E 004°21'0 0.0
2015-Jan-26 16:33N 51°16' E 004°21'0 0.0
2015-Jan-26 15:34N 51°16' E 004°21'4 4.1
2015-Jan-26 14:33N 51°20' E 004°18'1 1.1
2015-Jan-26 13:33N 51°21' E 004°17'0 0.0
2015-Jan-26 12:33N 51°21' E 004°17'3 2.8
2015-Jan-26 11:33N 51°22' E 004°13'7 7.2
2015-Jan-26 10:33N 51°24' E 004°02'7 6.7
2015-Jan-26 09:33N 51°21' E 003°52'9 9.1
2015-Jan-26 08:34N 51°26' E 003°40'7 7.5
2015-Jan-26 07:33N 51°25' E 003°29'9 9.0
2015-Jan-26 06:33N 51°24' E 003°14'1010.3
2015-Jan-26 05:33N 51°23' E 002°58'1110.7
2015-Jan-26 04:33N 51°22' E 002°41'3 2.6
2015-Jan-26 03:33N 51°22' E 002°37'7 6.6
2015-Jan-26 02:31N 51°21' E 002°26'6 5.7
2015-Jan-26 01:32N 51°19' E 002°17'1212.1
2015-Jan-26 00:33N 51°23' E 001°60'1514.5
2015-Jan-25 23:33N 51°35' E 002°13'1815.0
2015-Jan-25 22:21N 51°49' E 002°33'2813.2
2015-Jan-25 20:12N 52°16' E 002°43'811.9
2015-Jan-25 19:32N 52°23' E 002°48'41612.2
2015-Jan-24 09:22N 57°49' E 010°22'911.5
2015-Jan-24 08:33N 57°48' E 010°40'1111.6
2015-Jan-24 07:33N 57°42' E 010°58'1313.5
2015-Jan-24 06:33N 57°33' E 011°16'1313.4
2015-Jan-24 05:34N 57°22' E 011°30'1413.9
2015-Jan-24 04:33N 57°09' E 011°39'1414.1
2015-Jan-24 03:33N 56°55' E 011°47'1212.3
2015-Jan-24 02:33N 56°43' E 011°49'1414.2
2015-Jan-24 01:33N 56°34' E 011°29'4312.8
2015-Jan-23 22:11N 55°55' E 010°57'7712.9
2015-Jan-23 16:10N 54°37' E 010°57'913.8
2015-Jan-23 15:32N 54°36' E 011°11'1414.7
2015-Jan-23 14:33N 54°30' E 011°34'1414.0
2015-Jan-23 13:33N 54°27' E 011°57'1211.9
2015-Jan-23 12:33N 54°33' E 012°15'11 9.8
2015-Jan-23 11:25N 54°41' E 012°27'7 8.6
2015-Jan-23 10:33N 54°46' E 012°38'11 9.2
2015-Jan-23 09:20N 54°50' E 012°56'2514.0
2015-Jan-23 07:33N 54°58' E 013°37'3013.0
2015-Jan-23 05:16N 55°15' E 014°19'1314.0
2015-Jan-23 04:21N 55°25' E 014°33'1114.1
2015-Jan-23 03:33N 55°31' E 014°50'1713.6
2015-Jan-23 02:19N 55°39' E 015°17'1613.3
2015-Jan-23 01:08N 55°42' E 015°44'33512.7
2015-Jan-21 22:38N 59°32' E 023°21'313.4
2015-Jan-21 22:24N 59°32' E 023°27'3113.6
2015-Jan-21 20:09N 59°30' E 024°27'610.8
2015-Jan-21 19:34N 59°28' E 024°39'0 0.3
2015-Jan-21 18:31N 59°28' E 024°39'0 0.0
2015-Jan-21 17:33N 59°28' E 024°39'0 0.0
2015-Jan-21 16:33N 59°28' E 024°39'0 0.0
2015-Jan-21 15:32N 59°28' E 024°39'0 0.0
2015-Jan-21 14:32N 59°28' E 024°39'0 0.0
2015-Jan-21 13:31N 59°28' E 024°39'0 0.0
2015-Jan-21 12:28N 59°28' E 024°39'0 0.0
2015-Jan-21 11:31N 59°28' E 024°39'0 0.0
2015-Jan-21 10:33N 59°28' E 024°39'0 0.0
2015-Jan-21 09:30N 59°28' E 024°39'0 0.0
2015-Jan-21 08:29N 59°28' E 024°39'0 0.0
2015-Jan-21 07:32N 59°28' E 024°39'0 0.0
2015-Jan-21 06:31N 59°28' E 024°39'0 0.0
2015-Jan-21 05:28N 59°28' E 024°39'0 0.0
2015-Jan-21 04:25N 59°28' E 024°39'0 0.0
2015-Jan-21 03:33N 59°28' E 024°39'0 0.0
2015-Jan-21 02:33N 59°28' E 024°39'0 0.0
2015-Jan-21 01:32N 59°28' E 024°39'0 0.0
2015-Jan-21 00:29N 59°28' E 024°39'0 0.0
2015-Jan-20 23:31N 59°28' E 024°39'0 0.0
2015-Jan-20 22:31N 59°28' E 024°39'0 0.0
2015-Jan-20 21:31N 59°28' E 024°39'0 0.0
2015-Jan-20 20:33N 59°28' E 024°39'0 0.0
2015-Jan-20 19:33N 59°28' E 024°39'0 0.0
2015-Jan-20 18:29N 59°28' E 024°39'0 0.0
2015-Jan-20 17:32N 59°28' E 024°39'0 0.0
2015-Jan-20 16:31N 59°28' E 024°39'0 0.0
2015-Jan-20 15:31N 59°28' E 024°39'0 0.0
2015-Jan-20 14:31N 59°28' E 024°39'0 0.0
2015-Jan-20 13:33N 59°28' E 024°39'0 0.0
2015-Jan-20 12:33N 59°28' E 024°39'1 0.6
2015-Jan-20 11:33N 59°28' E 024°38'  
2015-Jan-17 13:22N 55°36' E 015°28'1215.1
2015-Jan-17 12:33N 55°31' E 015°08'1515.0
2015-Jan-17 11:33N 55°25' E 014°44'1414.2
2015-Jan-17 10:33N 55°15' E 014°27'1313.3
2015-Jan-17 09:33N 55°11' E 014°05'1414.5
2015-Jan-17 08:33N 55°11' E 013°39'1414.4
2015-Jan-17 07:33N 55°12' E 013°14'1515.0
2015-Jan-17 06:33N 55°15' E 012°49'1211.7
2015-Jan-17 05:33N 55°26' E 012°41'1110.5
2015-Jan-17 04:33N 55°36' E 012°42'1212.2
2015-Jan-17 03:33N 55°49' E 012°43'1413.5
2015-Jan-17 02:33N 56°02' E 012°38'1312.6
2015-Jan-17 01:33N 56°11' E 012°22'1312.9
2015-Jan-17 00:33N 56°18' E 012°03'1312.8
2015-Jan-16 23:33N 56°31' E 011°58'1312.9
2015-Jan-16 22:33N 56°43' E 011°53'1312.8
2015-Jan-16 21:33N 56°56' E 011°45'1312.9
2015-Jan-16 20:33N 57°08' E 011°37'1313.5
2015-Jan-16 19:33N 57°20' E 011°29'  
Track history (hours):
 
Tides and Currents Weather Stations Pressure Air Temp Water Temp Dewpoint Dewpoint Depression Visibility Wind Speed Wind Dir Waves Ship Positions

Baltic Frost

Last reported at 2015-Jan-26 19:20 UTC. Time now 2015-Jan-26 20:29 UTC.
Position N 51°16' E 004°21'.

Length 182 m; draft 10.6 m.

Type: Ship. MMSI: 256495000.

Date/timePositionNaut miles runAvg speedWind from/ knotsBaromVisibWave heightAir tempDewpointWater temp
2015-Jan-26 19:20N 51°16' E 004°21'0 0.0
2015-Jan-26 18:31N 51°16' E 004°21'0 0.0
2015-Jan-26 17:31N 51°16' E 004°21'0 0.0
2015-Jan-26 16:33N 51°16' E 004°21'0 0.0
2015-Jan-26 15:34N 51°16' E 004°21'4 4.1
2015-Jan-26 14:33N 51°20' E 004°18'1 1.1
2015-Jan-26 13:33N 51°21' E 004°17'0 0.0
2015-Jan-26 12:33N 51°21' E 004°17'3 2.8
2015-Jan-26 11:33N 51°22' E 004°13'7 7.2
2015-Jan-26 10:33N 51°24' E 004°02'7 6.7
2015-Jan-26 09:33N 51°21' E 003°52'9 9.1
2015-Jan-26 08:34N 51°26' E 003°40'7 7.5
2015-Jan-26 07:33N 51°25' E 003°29'9 9.0
2015-Jan-26 06:33N 51°24' E 003°14'1010.3
2015-Jan-26 05:33N 51°23' E 002°58'1110.7
2015-Jan-26 04:33N 51°22' E 002°41'3 2.6
2015-Jan-26 03:33N 51°22' E 002°37'7 6.6
2015-Jan-26 02:31N 51°21' E 002°26'6 5.7
2015-Jan-26 01:32N 51°19' E 002°17'1212.1
2015-Jan-26 00:33N 51°23' E 001°60'1514.5
2015-Jan-25 23:33N 51°35' E 002°13'1815.0
2015-Jan-25 22:21N 51°49' E 002°33'2813.2
2015-Jan-25 20:12N 52°16' E 002°43'811.9
2015-Jan-25 19:32N 52°23' E 002°48'41612.2
2015-Jan-24 09:22N 57°49' E 010°22'911.5
2015-Jan-24 08:33N 57°48' E 010°40'1111.6
2015-Jan-24 07:33N 57°42' E 010°58'1313.5
2015-Jan-24 06:33N 57°33' E 011°16'1313.4
2015-Jan-24 05:34N 57°22' E 011°30'1413.9
2015-Jan-24 04:33N 57°09' E 011°39'1414.1
2015-Jan-24 03:33N 56°55' E 011°47'1212.3
2015-Jan-24 02:33N 56°43' E 011°49'1414.2
2015-Jan-24 01:33N 56°34' E 011°29'4312.8
2015-Jan-23 22:11N 55°55' E 010°57'7712.9
2015-Jan-23 16:10N 54°37' E 010°57'913.8
2015-Jan-23 15:32N 54°36' E 011°11'1414.7
2015-Jan-23 14:33N 54°30' E 011°34'1414.0
2015-Jan-23 13:33N 54°27' E 011°57'1211.9
2015-Jan-23 12:33N 54°33' E 012°15'11 9.8
2015-Jan-23 11:25N 54°41' E 012°27'7 8.6
2015-Jan-23 10:33N 54°46' E 012°38'11 9.2
2015-Jan-23 09:20N 54°50' E 012°56'2514.0
2015-Jan-23 07:33N 54°58' E 013°37'3013.0
2015-Jan-23 05:16N 55°15' E 014°19'1314.0
2015-Jan-23 04:21N 55°25' E 014°33'1114.1
2015-Jan-23 03:33N 55°31' E 014°50'1713.6
2015-Jan-23 02:19N 55°39' E 015°17'1613.3
2015-Jan-23 01:08N 55°42' E 015°44'33512.7
2015-Jan-21 22:38N 59°32' E 023°21'313.4
2015-Jan-21 22:24N 59°32' E 023°27'3113.6
2015-Jan-21 20:09N 59°30' E 024°27'610.8
2015-Jan-21 19:34N 59°28' E 024°39'0 0.3
2015-Jan-21 18:31N 59°28' E 024°39'0 0.0
2015-Jan-21 17:33N 59°28' E 024°39'0 0.0
2015-Jan-21 16:33N 59°28' E 024°39'0 0.0
2015-Jan-21 15:32N 59°28' E 024°39'0 0.0
2015-Jan-21 14:32N 59°28' E 024°39'0 0.0
2015-Jan-21 13:31N 59°28' E 024°39'0 0.0
2015-Jan-21 12:28N 59°28' E 024°39'0 0.0
2015-Jan-21 11:31N 59°28' E 024°39'0 0.0
2015-Jan-21 10:33N 59°28' E 024°39'0 0.0
2015-Jan-21 09:30N 59°28' E 024°39'0 0.0
2015-Jan-21 08:29N 59°28' E 024°39'0 0.0
2015-Jan-21 07:32N 59°28' E 024°39'0 0.0
2015-Jan-21 06:31N 59°28' E 024°39'0 0.0
2015-Jan-21 05:28N 59°28' E 024°39'0 0.0
2015-Jan-21 04:25N 59°28' E 024°39'0 0.0
2015-Jan-21 03:33N 59°28' E 024°39'0 0.0
2015-Jan-21 02:33N 59°28' E 024°39'0 0.0
2015-Jan-21 01:32N 59°28' E 024°39'0 0.0
2015-Jan-21 00:29N 59°28' E 024°39'0 0.0
2015-Jan-20 23:31N 59°28' E 024°39'0 0.0
2015-Jan-20 22:31N 59°28' E 024°39'0 0.0
2015-Jan-20 21:31N 59°28' E 024°39'0 0.0
2015-Jan-20 20:33N 59°28' E 024°39'0 0.0
2015-Jan-20 19:33N 59°28' E 024°39'0 0.0
2015-Jan-20 18:29N 59°28' E 024°39'0 0.0
2015-Jan-20 17:32N 59°28' E 024°39'0 0.0
2015-Jan-20 16:31N 59°28' E 024°39'0 0.0
2015-Jan-20 15:31N 59°28' E 024°39'0 0.0
2015-Jan-20 14:31N 59°28' E 024°39'0 0.0
2015-Jan-20 13:33N 59°28' E 024°39'0 0.0
2015-Jan-20 12:33N 59°28' E 024°39'1 0.6
2015-Jan-20 11:33N 59°28' E 024°38'  
2015-Jan-17 13:22N 55°36' E 015°28'1215.1
2015-Jan-17 12:33N 55°31' E 015°08'1515.0
2015-Jan-17 11:33N 55°25' E 014°44'1414.2
2015-Jan-17 10:33N 55°15' E 014°27'1313.3
2015-Jan-17 09:33N 55°11' E 014°05'1414.5
2015-Jan-17 08:33N 55°11' E 013°39'1414.4
2015-Jan-17 07:33N 55°12' E 013°14'1515.0
2015-Jan-17 06:33N 55°15' E 012°49'1211.7
2015-Jan-17 05:33N 55°26' E 012°41'1110.5
2015-Jan-17 04:33N 55°36' E 012°42'1212.2
2015-Jan-17 03:33N 55°49' E 012°43'1413.5
2015-Jan-17 02:33N 56°02' E 012°38'1312.6
2015-Jan-17 01:33N 56°11' E 012°22'1312.9
2015-Jan-17 00:33N 56°18' E 012°03'1312.8
2015-Jan-16 23:33N 56°31' E 011°58'1312.9
2015-Jan-16 22:33N 56°43' E 011°53'1312.8
2015-Jan-16 21:33N 56°56' E 011°45'1312.9
2015-Jan-16 20:33N 57°08' E 011°37'1313.5
2015-Jan-16 19:33N 57°20' E 011°29'  

Dump ship's entire track history